Time;durP1;ratioP1;P1;durP2;ratioP2;P2;SDS_P1;SDS_P2;PMS_P1;PMS_P2;Temp;Humidity;BMP_temperature;BMP_pressure;BME280_temperature;BME280_humidity;BME280_pressure;Samples;Min_cycle;Max_cycle;Signal;HPM_P1;HPM_P2
2022/05/02 00:02:17;;;;;;;;;;;25.40;37.20;;;;;;5051796;28;972;-46
2022/05/02 00:04:43;;;;;;;;;;;25.40;37.20;;;;;;5052764;28;1908;-46
2022/05/02 00:07:11;;;;;;;;;;;25.40;37.20;;;;;;5056128;28;1047;-46
2022/05/02 00:09:38;;;;;;;;;;;25.40;37.20;;;;;;5056793;28;940;-46
2022/05/02 00:12:05;;;;;;;;;;;25.40;37.20;;;;;;5058505;28;976;-46
2022/05/02 00:14:32;;;;;;;;;;;25.40;37.30;;;;;;5057645;28;975;-45
2022/05/02 00:16:59;;;;;;;;;;;25.40;37.30;;;;;;5058112;28;1009;-46
2022/05/02 00:19:26;;;;;;;;;;;25.30;37.10;;;;;;5056949;28;925;-46
2022/05/02 00:21:52;;;;;;;;;;;25.30;37.20;;;;;;5057076;28;854;-46
2022/05/02 00:24:20;;;;;;;;;;;25.30;37.20;;;;;;5054890;28;1898;-47
2022/05/02 00:26:47;;;;;;;;;;;25.30;37.20;;;;;;5056481;28;953;-46
2022/05/02 00:29:14;;;;;;;;;;;25.30;37.20;;;;;;5056819;28;989;-47
2022/05/02 00:31:40;;;;;;;;;;;25.30;37.20;;;;;;5057701;28;905;-46
2022/05/02 00:34:07;;;;;;;;;;;25.30;37.20;;;;;;5056502;28;953;-46
2022/05/02 00:36:34;;;;;;;;;;;25.30;37.20;;;;;;5057355;28;973;-46
2022/05/02 00:39:01;;;;;;;;;;;25.30;37.30;;;;;;5056282;28;976;-46
2022/05/02 00:41:29;;;;;;;;;;;25.30;37.30;;;;;;5055872;28;1092;-45
2022/05/02 00:43:56;;;;;;;;;;;25.30;37.30;;;;;;5056373;28;1911;-46
2022/05/02 00:46:23;;;;;;;;;;;25.30;37.30;;;;;;5056438;28;1182;-46
2022/05/02 00:48:50;;;;;;;;;;;25.30;37.30;;;;;;5055412;28;1039;-46
2022/05/02 00:51:17;;;;;;;;;;;25.30;37.30;;;;;;5057850;28;909;-47
2022/05/02 00:53:45;;;;;;;;;;;25.30;37.30;;;;;;5056943;28;997;-45
2022/05/02 00:56:11;;;;;;;;;;;25.30;37.30;;;;;;5056304;28;1008;-46
2022/05/02 00:58:39;;;;;;;;;;;25.20;37.30;;;;;;5056263;28;936;-46
2022/05/02 01:01:06;;;;;;;;;;;25.30;37.40;;;;;;5056859;28;1001;-46
2022/05/02 01:03:34;;;;;;;;;;;25.20;37.30;;;;;;5055620;28;1975;-42
2022/05/02 01:08:45;;;;;;;;;;;25.20;37.40;;;;;;5055183;28;602;-42
2022/05/02 01:11:12;;;;;;;;;;;25.30;37.30;;;;;;5054302;28;1048;-42
2022/05/02 01:13:41;;;;;;;;;;;25.20;37.40;;;;;;5055720;28;1953;-43
2022/05/02 01:16:08;;;;;;;;;;;25.20;37.30;;;;;;5055671;28;937;-43
2022/05/02 01:18:36;;;;;;;;;;;25.20;37.40;;;;;;5054185;28;962;-43
2022/05/02 01:21:08;;;;;;;;;;;25.20;37.40;;;;;;5055164;28;1112;-43
2022/05/02 01:23:35;;;;;;;;;;;25.20;37.40;;;;;;5054886;28;1989;-43
2022/05/02 01:26:01;;;;;;;;;;;25.20;37.40;;;;;;5054399;28;1016;-42
2022/05/02 01:28:29;;;;;;;;;;;25.20;37.40;;;;;;5055408;28;957;-43
2022/05/02 01:30:57;;;;;;;;;;;25.20;37.40;;;;;;5056425;28;1055;-42
2022/05/02 01:33:24;;;;;;;;;;;25.20;37.40;;;;;;5054736;28;949;-43
2022/05/02 01:35:50;;;;;;;;;;;25.20;37.50;;;;;;5056067;28;1020;-40
2022/05/02 01:38:19;;;;;;;;;;;25.20;37.40;;;;;;5054865;28;1423;-42
2022/05/02 01:40:45;;;;;;;;;;;25.20;37.50;;;;;;5055666;28;1107;-42
2022/05/02 01:43:12;;;;;;;;;;;25.20;37.40;;;;;;5055247;28;1095;-42
2022/05/02 01:45:39;;;;;;;;;;;25.20;37.40;;;;;;5055345;28;1984;-41
2022/05/02 01:48:06;;;;;;;;;;;25.20;37.40;;;;;;5055083;28;1025;-39
2022/05/02 01:50:33;;;;;;;;;;;25.20;37.40;;;;;;5055173;28;1012;-39
2022/05/02 01:52:59;;;;;;;;;;;25.20;37.60;;;;;;5055149;28;932;-41
2022/05/02 01:55:28;;;;;;;;;;;25.20;37.40;;;;;;5053927;28;948;-40
2022/05/02 01:57:54;;;;;;;;;;;25.20;37.40;;;;;;5055406;28;917;-40
2022/05/02 02:00:21;;;;;;;;;;;25.20;37.50;;;;;;5055793;28;1035;-41
2022/05/02 02:02:48;;;;;;;;;;;25.20;37.50;;;;;;5054865;28;1012;-41
2022/05/02 02:07:55;;;;;;;;;;;25.20;37.50;;;;;;5045849;28;1395;-41
2022/05/02 02:10:22;;;;;;;;;;;25.20;37.50;;;;;;5054769;28;972;-41
2022/05/02 02:12:50;;;;;;;;;;;25.20;37.60;;;;;;5054490;28;953;-39
2022/05/02 02:15:17;;;;;;;;;;;25.10;37.50;;;;;;5053336;28;976;-40
2022/05/02 02:17:44;;;;;;;;;;;25.10;37.50;;;;;;5053139;28;968;-40
2022/05/02 02:20:11;;;;;;;;;;;25.10;37.60;;;;;;5054693;28;958;-41
2022/05/02 02:22:38;;;;;;;;;;;25.10;37.60;;;;;;5054957;28;928;-42
2022/05/02 02:25:06;;;;;;;;;;;25.10;37.50;;;;;;5054200;28;1902;-40
2022/05/02 02:27:33;;;;;;;;;;;25.10;37.60;;;;;;5054936;28;1061;-40
2022/05/02 02:30:01;;;;;;;;;;;25.10;37.60;;;;;;5054602;28;1842;-42
2022/05/02 02:32:28;;;;;;;;;;;25.10;37.60;;;;;;5054173;28;687;-41
2022/05/02 02:34:55;;;;;;;;;;;25.10;37.70;;;;;;5053544;28;988;-44
2022/05/02 02:37:21;;;;;;;;;;;25.10;37.60;;;;;;5055195;28;949;-45
2022/05/02 02:39:48;;;;;;;;;;;25.10;37.60;;;;;;5052884;28;1045;-45
2022/05/02 02:42:16;;;;;;;;;;;25.10;37.60;;;;;;5052666;28;1300;-44
2022/05/02 02:44:42;;;;;;;;;;;25.20;37.60;;;;;;5054049;28;1906;-44
2022/05/02 02:47:10;;;;;;;;;;;25.10;37.60;;;;;;5055154;28;990;-44
2022/05/02 02:49:37;;;;;;;;;;;25.10;37.60;;;;;;5055695;28;999;-45
2022/05/02 02:52:04;;;;;;;;;;;25.10;37.70;;;;;;5054477;28;949;-41
2022/05/02 02:54:31;;;;;;;;;;;25.10;37.60;;;;;;5054756;28;873;-42
2022/05/02 02:56:57;;;;;;;;;;;25.10;37.60;;;;;;5054215;28;1744;-42
2022/05/02 02:59:40;;;;;;;;;;;25.10;37.60;;;;;;5057322;28;1005;-42
2022/05/02 03:02:07;;;;;;;;;;;25.10;37.70;;;;;;5054230;28;981;-42
2022/05/02 03:07:19;;;;;;;;;;;25.10;37.70;;;;;;5052592;28;910;-41
2022/05/02 03:09:46;;;;;;;;;;;25.10;37.70;;;;;;5053336;28;992;-43
2022/05/02 03:12:13;;;;;;;;;;;25.10;37.70;;;;;;5053791;28;975;-42
2022/05/02 03:14:40;;;;;;;;;;;25.10;37.70;;;;;;5053431;28;992;-42
2022/05/02 03:17:06;;;;;;;;;;;25.10;37.70;;;;;;5053345;28;988;-42
2022/05/02 03:19:34;;;;;;;;;;;25.10;37.70;;;;;;5053059;28;980;-42
2022/05/02 03:22:01;;;;;;;;;;;25.10;37.70;;;;;;5053953;28;917;-43
2022/05/02 03:24:28;;;;;;;;;;;25.10;37.70;;;;;;5053484;28;1894;-42
2022/05/02 03:26:55;;;;;;;;;;;25.10;37.80;;;;;;5053102;28;917;-42
2022/05/02 03:29:22;;;;;;;;;;;25.10;37.70;;;;;;5053599;28;929;-43
2022/05/02 03:31:49;;;;;;;;;;;25.10;37.70;;;;;;5053727;28;933;-41
2022/05/02 03:34:15;;;;;;;;;;;25.00;37.70;;;;;;5053872;28;981;-43
2022/05/02 03:36:43;;;;;;;;;;;25.10;37.80;;;;;;5054017;28;993;-42
2022/05/02 03:39:10;;;;;;;;;;;25.00;37.70;;;;;;5052881;28;1000;-42
2022/05/02 03:41:37;;;;;;;;;;;25.10;37.80;;;;;;5052550;28;1377;-43
2022/05/02 03:44:03;;;;;;;;;;;25.10;37.80;;;;;;5051630;28;1898;-43
2022/05/02 03:46:30;;;;;;;;;;;25.10;37.80;;;;;;5051059;28;1013;-43
2022/05/02 03:48:57;;;;;;;;;;;25.10;37.80;;;;;;5052802;28;928;-42
2022/05/02 03:51:24;;;;;;;;;;;25.00;37.80;;;;;;5053127;28;1025;-41
2022/05/02 03:53:52;;;;;;;;;;;25.00;37.80;;;;;;5053144;28;948;-43
2022/05/02 03:56:19;;;;;;;;;;;25.00;37.80;;;;;;5052084;28;1468;-43
2022/05/02 03:58:46;;;;;;;;;;;25.00;37.70;;;;;;5051796;28;1052;-43
2022/05/02 04:01:13;;;;;;;;;;;25.00;37.80;;;;;;5051056;28;969;-39
2022/05/02 04:03:40;;;;;;;;;;;25.00;37.80;;;;;;5051686;28;973;-41
2022/05/02 04:06:07;;;;;;;;;;;25.00;37.80;;;;;;5052153;28;1898;-41
2022/05/02 04:08:34;;;;;;;;;;;25.00;37.80;;;;;;5051551;28;953;-41
2022/05/02 04:11:03;;;;;;;;;;;25.00;37.80;;;;;;5052349;28;905;-40
2022/05/02 04:13:30;;;;;;;;;;;25.00;37.80;;;;;;5051331;28;1979;-42
2022/05/02 04:15:57;;;;;;;;;;;25.00;37.80;;;;;;5051069;28;956;-42
2022/05/02 04:18:23;;;;;;;;;;;25.00;37.80;;;;;;5050769;28;891;-40
2022/05/02 04:20:51;;;;;;;;;;;25.00;37.80;;;;;;5050196;28;976;-42
2022/05/02 04:23:18;;;;;;;;;;;25.00;37.80;;;;;;5052405;28;985;-41
2022/05/02 04:25:45;;;;;;;;;;;25.00;37.80;;;;;;5051683;28;1898;-41
2022/05/02 04:28:13;;;;;;;;;;;25.00;37.80;;;;;;5051470;28;1080;-41
2022/05/02 04:30:39;;;;;;;;;;;25.00;37.80;;;;;;5050557;28;969;-42
2022/05/02 04:33:06;;;;;;;;;;;25.00;37.70;;;;;;5050736;28;1026;-43
2022/05/02 04:35:33;;;;;;;;;;;25.00;37.80;;;;;;5050621;28;1010;-43
2022/05/02 04:38:01;;;;;;;;;;;25.00;37.80;;;;;;5049773;28;1018;-44
2022/05/02 04:40:27;;;;;;;;;;;25.00;37.90;;;;;;5048823;28;1155;-43
2022/05/02 04:42:54;;;;;;;;;;;25.00;37.90;;;;;;5050435;28;997;-43
2022/05/02 04:45:22;;;;;;;;;;;25.00;37.80;;;;;;5049855;28;1898;-43
2022/05/02 04:47:49;;;;;;;;;;;25.10;37.80;;;;;;5050271;28;1038;-43
2022/05/02 04:50:16;;;;;;;;;;;25.10;37.90;;;;;;5050108;28;1121;-44
2022/05/02 04:52:42;;;;;;;;;;;25.10;37.90;;;;;;5051683;28;1006;-44
2022/05/02 04:55:09;;;;;;;;;;;25.10;38.10;;;;;;5053875;28;937;-44
2022/05/02 04:57:36;;;;;;;;;;;25.00;38.10;;;;;;5052682;28;1030;-44
2022/05/02 05:00:03;;;;;;;;;;;25.10;38.10;;;;;;5052143;28;1008;-44
2022/05/02 05:02:31;;;;;;;;;;;25.10;38.20;;;;;;5050480;28;1056;-44
2022/05/02 05:04:58;;;;;;;;;;;25.00;38.00;;;;;;5048412;28;1968;-43
2022/05/02 05:07:25;;;;;;;;;;;25.10;38.00;;;;;;5047777;28;1096;-43
2022/05/02 05:09:52;;;;;;;;;;;25.00;38.00;;;;;;5049179;28;838;-43
2022/05/02 05:12:24;;;;;;;;;;;25.10;38.30;;;;;;5049305;28;976;-43
2022/05/02 05:17:46;;;;;;;;;;;25.00;38.40;;;;;;5045231;28;962;-44
2022/05/02 05:20:14;;;;;;;;;;;25.00;38.50;;;;;;5044382;28;1482;-44
2022/05/02 05:23:03;;;;;;;;;;;25.00;38.50;;;;;;5046241;28;1801;-43
2022/05/02 05:25:42;;;;;;;;;;;25.00;38.60;;;;;;5046310;28;1910;-44
2022/05/02 05:28:19;;;;;;;;;;;25.00;38.60;;;;;;5045445;28;1073;-43
2022/05/02 05:30:47;;;;;;;;;;;25.00;38.60;;;;;;5045098;28;897;-43
2022/05/02 05:33:24;;;;;;;;;;;25.00;38.60;;;;;;5046513;28;897;-44
2022/05/02 05:35:57;;;;;;;;;;;25.00;38.70;;;;;;5046517;28;933;-44
2022/05/02 05:38:27;;;;;;;;;;;25.00;38.70;;;;;;5046902;28;1009;-44
2022/05/02 05:41:00;;;;;;;;;;;25.00;38.70;;;;;;5045763;28;1508;-44
2022/05/02 05:43:46;;;;;;;;;;;25.00;38.70;;;;;;5046182;28;1164;-45
2022/05/02 05:46:23;;;;;;;;;;;25.00;38.70;;;;;;5053284;28;2084;-43
2022/05/02 05:48:57;;;;;;;;;;;25.00;38.70;;;;;;5071871;28;913;-44
2022/05/02 05:51:34;;;;;;;;;;;25.00;38.80;;;;;;5071066;28;1195;-44
2022/05/02 05:54:09;;;;;;;;;;;25.00;38.80;;;;;;5067096;28;1033;-44
2022/05/02 05:56:43;;;;;;;;;;;25.00;38.80;;;;;;5067108;28;963;-43
2022/05/02 05:59:11;;;;;;;;;;;25.00;38.80;;;;;;5069032;28;933;-43
2022/05/02 06:01:42;;;;;;;;;;;25.00;38.80;;;;;;5067776;28;909;-43
2022/05/02 06:04:11;;;;;;;;;;;25.00;38.90;;;;;;5068043;28;1032;-43
2022/05/02 06:06:38;;;;;;;;;;;25.00;38.80;;;;;;5066398;28;1975;-44
2022/05/02 06:09:06;;;;;;;;;;;25.00;38.80;;;;;;5068791;28;1869;-43
2022/05/02 06:11:34;;;;;;;;;;;24.90;38.80;;;;;;5067160;28;1027;-44
2022/05/02 06:14:02;;;;;;;;;;;25.00;38.90;;;;;;5067987;28;1018;-43
2022/05/02 06:19:16;;;;;;;;;;;24.90;38.80;;;;;;5068360;28;801;-43
2022/05/02 06:21:44;;;;;;;;;;;25.00;38.80;;;;;;5068601;28;921;-44
2022/05/02 06:24:11;;;;;;;;;;;25.00;38.90;;;;;;5067792;28;989;-45
2022/05/02 06:26:38;;;;;;;;;;;25.00;38.90;;;;;;5066061;28;1969;-43
2022/05/02 06:29:06;;;;;;;;;;;25.00;38.90;;;;;;5068768;28;889;-44
2022/05/02 06:31:36;;;;;;;;;;;25.00;38.90;;;;;;5067451;28;988;-44
2022/05/02 06:34:03;;;;;;;;;;;25.00;38.90;;;;;;5068116;28;1015;-44
2022/05/02 06:36:36;;;;;;;;;;;25.00;38.90;;;;;;5066700;28;875;-44
2022/05/02 06:39:04;;;;;;;;;;;24.90;38.90;;;;;;5067508;28;877;-44
2022/05/02 06:41:39;;;;;;;;;;;25.00;38.90;;;;;;5066622;28;1032;-43
2022/05/02 06:44:09;;;;;;;;;;;24.90;38.90;;;;;;5066420;28;858;-43
2022/05/02 06:46:38;;;;;;;;;;;25.00;39.00;;;;;;5065883;28;1969;-43
2022/05/02 06:49:09;;;;;;;;;;;25.00;39.00;;;;;;5066289;28;1028;-44
2022/05/02 06:51:38;;;;;;;;;;;25.00;39.00;;;;;;5066434;28;987;-44
2022/05/02 06:54:22;;;;;;;;;;;25.00;39.00;;;;;;5067620;28;908;-44
2022/05/02 06:56:51;;;;;;;;;;;25.00;39.10;;;;;;5066034;28;887;-43
2022/05/02 06:59:36;;;;;;;;;;;25.00;39.00;;;;;;5067441;28;992;-44
2022/05/02 07:02:10;;;;;;;;;;;25.00;39.10;;;;;;5066311;28;1582;-43
2022/05/02 07:04:43;;;;;;;;;;;25.00;39.10;;;;;;5067249;28;866;-43
2022/05/02 07:07:31;;;;;;;;;;;25.00;39.00;;;;;;5066698;28;1902;-43
2022/05/02 07:10:01;;;;;;;;;;;25.00;39.10;;;;;;5062265;28;1254;-43
2022/05/02 07:12:30;;;;;;;;;;;24.90;39.10;;;;;;5064446;28;1026;-44
2022/05/02 07:15:06;;;;;;;;;;;25.00;39.10;;;;;;5066181;28;976;-44
2022/05/02 07:17:52;;;;;;;;;;;25.00;39.10;;;;;;5067621;28;945;-43
2022/05/02 07:20:20;;;;;;;;;;;25.00;39.10;;;;;;5069062;28;956;-43
2022/05/02 07:22:56;;;;;;;;;;;25.00;39.10;;;;;;5066991;28;990;-43
2022/05/02 07:25:23;;;;;;;;;;;25.00;39.20;;;;;;5065486;28;1980;-43
2022/05/02 07:27:54;;;;;;;;;;;25.00;39.10;;;;;;5066440;28;1872;-43
2022/05/02 07:30:22;;;;;;;;;;;25.00;39.10;;;;;;5069253;28;1017;-42
2022/05/02 07:32:50;;;;;;;;;;;25.00;39.10;;;;;;5068129;28;1026;-42
2022/05/02 07:35:17;;;;;;;;;;;25.00;39.10;;;;;;5067514;28;877;-43
2022/05/02 07:37:45;;;;;;;;;;;25.00;39.00;;;;;;5068846;28;983;-42
2022/05/02 07:40:14;;;;;;;;;;;25.00;39.00;;;;;;5068741;28;996;-42
2022/05/02 07:42:42;;;;;;;;;;;25.00;39.00;;;;;;5067157;28;1017;-43
2022/05/02 07:45:10;;;;;;;;;;;25.00;39.10;;;;;;5065944;28;1013;-43
2022/05/02 07:47:37;;;;;;;;;;;25.00;39.00;;;;;;5066463;28;1902;-43
2022/05/02 07:50:05;;;;;;;;;;;25.00;38.90;;;;;;5068424;28;1011;-43
2022/05/02 07:52:35;;;;;;;;;;;25.00;38.90;;;;;;5069935;28;1074;-44
2022/05/02 07:55:02;;;;;;;;;;;25.00;38.90;;;;;;5068080;28;993;-43
2022/05/02 07:57:32;;;;;;;;;;;25.10;38.80;;;;;;5068266;28;1005;-42
2022/05/02 08:00:00;;;;;;;;;;;25.00;38.80;;;;;;5067814;28;987;-43
2022/05/02 08:02:27;;;;;;;;;;;25.10;38.70;;;;;;5065875;28;998;-43
2022/05/02 08:04:54;;;;;;;;;;;25.00;38.70;;;;;;5065151;28;862;-43
2022/05/02 08:07:25;;;;;;;;;;;25.10;38.70;;;;;;5064633;28;1934;-43
2022/05/02 08:10:08;;;;;;;;;;;25.10;38.80;;;;;;5064272;28;1021;-43
2022/05/02 08:12:39;;;;;;;;;;;25.10;38.80;;;;;;5065298;28;998;-42
2022/05/02 08:15:08;;;;;;;;;;;25.10;38.70;;;;;;5067188;28;920;-43
2022/05/02 08:17:41;;;;;;;;;;;25.00;38.70;;;;;;5067010;28;912;-43
2022/05/02 08:20:13;;;;;;;;;;;25.00;38.90;;;;;;5060137;28;945;-44
2022/05/02 08:28:32;;;;;;;;;;;25.00;38.80;;;;;;4987907;28;691;-42
2022/05/02 08:31:03;;;;;;;;;;;25.10;39.00;;;;;;4986889;28;1043;-43
2022/05/02 08:33:31;;;;;;;;;;;25.10;38.80;;;;;;5026389;28;881;-43
2022/05/02 08:35:59;;;;;;;;;;;25.10;38.80;;;;;;5054194;28;1053;-43
2022/05/02 08:38:49;;;;;;;;;;;25.00;38.90;;;;;;5055006;28;977;-44
2022/05/02 08:41:34;;;;;;;;;;;25.10;38.80;;;;;;5053314;28;1331;-43
2022/05/02 08:44:22;;;;;;;;;;;25.10;38.90;;;;;;5052433;28;1016;-43
2022/05/02 08:47:02;;;;;;;;;;;25.10;38.80;;;;;;5051485;28;1910;-44
2022/05/02 08:49:46;;;;;;;;;;;25.00;38.90;;;;;;5050551;28;969;-43
2022/05/02 08:52:26;;;;;;;;;;;25.10;39.00;;;;;;5051596;28;894;-42
2022/05/02 08:55:12;;;;;;;;;;;25.10;39.00;;;;;;5051148;28;945;-43
2022/05/02 08:58:09;;;;;;;;;;;25.10;39.00;;;;;;5051128;28;1011;-43
2022/05/02 09:00:41;;;;;;;;;;;25.10;39.00;;;;;;4970239;28;893;-43
2022/05/02 09:03:28;;;;;;;;;;;25.10;38.90;;;;;;5034013;28;2048;-43
2022/05/02 09:06:06;;;;;;;;;;;25.10;38.80;;;;;;5048113;28;1982;-43
2022/05/02 09:08:57;;;;;;;;;;;25.10;38.70;;;;;;5043667;28;1137;-43
2022/05/02 09:11:35;;;;;;;;;;;25.10;38.60;;;;;;5027391;28;1300;-43
2022/05/02 09:14:35;;;;;;;;;;;25.20;38.50;;;;;;5050873;28;941;-43
2022/05/02 09:17:22;;;;;;;;;;;25.10;38.50;;;;;;5048228;28;1072;-43
2022/05/02 09:20:00;;;;;;;;;;;25.10;38.50;;;;;;5048829;28;980;-43
2022/05/02 09:22:41;;;;;;;;;;;25.10;38.60;;;;;;5048920;28;929;-42
2022/05/02 09:25:08;;;;;;;;;;;25.10;38.60;;;;;;5048099;28;913;-43
2022/05/02 09:27:36;;;;;;;;;;;25.20;38.60;;;;;;5050184;28;1946;-43
2022/05/02 09:30:18;;;;;;;;;;;25.10;38.50;;;;;;5048214;28;1005;-43
2022/05/02 09:32:47;;;;;;;;;;;25.10;38.60;;;;;;5044829;28;2475;-43
2022/05/02 09:35:17;;;;;;;;;;;25.10;38.50;;;;;;5049037;28;893;-43
2022/05/02 09:37:52;;;;;;;;;;;25.10;38.50;;;;;;5048401;28;985;-43
2022/05/02 09:40:24;;;;;;;;;;;25.10;38.70;;;;;;5051459;28;977;-43
2022/05/02 09:42:55;;;;;;;;;;;25.10;38.60;;;;;;5050698;28;1117;-43
2022/05/02 09:51:27;;;;;;;;;;;25.10;38.60;;;;;;5045692;28;1007;-43
2022/05/02 09:53:56;;;;;;;;;;;25.10;38.50;;;;;;5048648;28;885;-43
2022/05/02 09:56:38;;;;;;;;;;;25.10;38.50;;;;;;5048830;28;1092;-42
2022/05/02 09:59:07;;;;;;;;;;;25.10;38.50;;;;;;5048017;28;948;-43
2022/05/02 10:01:34;;;;;;;;;;;25.10;38.60;;;;;;5048990;28;984;-43
2022/05/02 10:04:18;;;;;;;;;;;25.20;38.60;;;;;;5048473;28;1046;-43
2022/05/02 10:06:49;;;;;;;;;;;25.20;38.50;;;;;;5048019;28;1981;-43
2022/05/02 10:09:21;;;;;;;;;;;25.20;38.60;;;;;;5048291;28;1888;-42
2022/05/02 10:11:53;;;;;;;;;;;25.20;38.60;;;;;;5049650;28;997;-43
2022/05/02 10:14:38;;;;;;;;;;;25.10;38.50;;;;;;5049288;28;1139;-44
2022/05/02 10:17:06;;;;;;;;;;;25.10;38.50;;;;;;5007418;28;976;-43
2022/05/02 10:19:41;;;;;;;;;;;25.10;38.60;;;;;;5047243;28;961;-43
2022/05/02 10:22:23;;;;;;;;;;;25.10;38.60;;;;;;5047469;28;976;-42
2022/05/02 10:25:01;;;;;;;;;;;25.10;38.60;;;;;;5045779;28;870;-42
2022/05/02 10:27:34;;;;;;;;;;;25.10;38.60;;;;;;5047226;28;1879;-42
2022/05/02 10:30:05;;;;;;;;;;;25.20;38.70;;;;;;5045796;28;1024;-42
2022/05/02 10:32:47;;;;;;;;;;;25.10;38.60;;;;;;5045060;28;1522;-42
2022/05/02 10:35:17;;;;;;;;;;;25.10;38.50;;;;;;5043064;28;1066;-42
2022/05/02 10:37:54;;;;;;;;;;;25.10;38.60;;;;;;5044699;28;874;-42
2022/05/02 10:40:25;;;;;;;;;;;25.20;38.60;;;;;;5046893;28;1040;-42
2022/05/02 10:42:52;;;;;;;;;;;25.20;38.60;;;;;;5045478;28;1095;-44
2022/05/02 10:45:19;;;;;;;;;;;25.20;38.60;;;;;;5043862;28;953;-42
2022/05/02 10:47:51;;;;;;;;;;;25.20;38.60;;;;;;5042634;28;2091;-42
2022/05/02 10:50:20;;;;;;;;;;;25.20;38.60;;;;;;5045391;28;956;-42
2022/05/02 10:53:12;;;;;;;;;;;25.20;38.70;;;;;;5045089;28;955;-42
2022/05/02 10:55:39;;;;;;;;;;;25.10;38.60;;;;;;5044846;28;893;-41
2022/05/02 10:58:07;;;;;;;;;;;25.10;38.60;;;;;;5045151;28;1387;-42
2022/05/02 11:00:34;;;;;;;;;;;25.20;38.60;;;;;;5043873;28;944;-42
2022/05/02 11:03:09;;;;;;;;;;;25.20;38.70;;;;;;5043659;28;1039;-42
2022/05/02 11:05:44;;;;;;;;;;;25.20;38.60;;;;;;5043383;28;1004;-42
2022/05/02 11:08:12;;;;;;;;;;;25.20;38.60;;;;;;5042241;28;1910;-43
2022/05/02 11:10:43;;;;;;;;;;;25.20;38.60;;;;;;5042755;28;957;-42
2022/05/02 11:13:20;;;;;;;;;;;25.20;38.60;;;;;;5044778;28;1028;-42
2022/05/02 11:16:00;;;;;;;;;;;25.20;38.60;;;;;;5044098;28;925;-42
2022/05/02 11:21:21;;;;;;;;;;;25.20;38.60;;;;;;5045678;28;940;-43
2022/05/02 11:23:58;;;;;;;;;;;25.20;38.60;;;;;;5045484;28;940;-43
2022/05/02 11:26:33;;;;;;;;;;;25.20;38.60;;;;;;5042156;28;1918;-43
2022/05/02 11:29:08;;;;;;;;;;;25.20;38.60;;;;;;5044311;28;1003;-43
2022/05/02 11:31:36;;;;;;;;;;;25.20;38.70;;;;;;5043738;28;904;-44
2022/05/02 11:34:04;;;;;;;;;;;25.20;38.60;;;;;;5046751;28;839;-43
2022/05/02 11:36:36;;;;;;;;;;;25.20;38.70;;;;;;5044110;28;1030;-41
2022/05/02 11:39:04;;;;;;;;;;;25.20;38.80;;;;;;5042362;28;957;-42
2022/05/02 11:41:31;;;;;;;;;;;25.20;38.60;;;;;;5044651;28;1287;-42
2022/05/02 11:44:08;;;;;;;;;;;25.20;38.60;;;;;;5044104;28;870;-43
2022/05/02 11:46:37;;;;;;;;;;;25.20;38.60;;;;;;5042168;28;1906;-43
2022/05/02 11:49:13;;;;;;;;;;;25.20;38.60;;;;;;5044576;28;1015;-42
2022/05/02 11:51:46;;;;;;;;;;;25.20;38.60;;;;;;5043141;28;980;-43
2022/05/02 11:54:26;;;;;;;;;;;25.20;38.60;;;;;;5043325;28;940;-43
2022/05/02 11:56:55;;;;;;;;;;;25.20;38.70;;;;;;5044486;28;866;-42
2022/05/02 11:59:23;;;;;;;;;;;25.20;38.70;;;;;;5045147;28;858;-42
2022/05/02 12:01:53;;;;;;;;;;;25.20;38.70;;;;;;5047234;28;985;-43
2022/05/02 12:04:22;;;;;;;;;;;25.30;38.70;;;;;;5050134;28;890;-43
2022/05/02 12:07:00;;;;;;;;;;;25.30;38.80;;;;;;5048288;28;1992;-43
2022/05/02 12:09:27;;;;;;;;;;;25.30;38.70;;;;;;5047334;28;938;-42
2022/05/02 12:11:54;;;;;;;;;;;25.30;38.70;;;;;;5047445;28;977;-44
2022/05/02 12:14:22;;;;;;;;;;;25.30;38.70;;;;;;5048106;28;837;-43
2022/05/02 12:17:09;;;;;;;;;;;25.30;38.70;;;;;;5047931;28;988;-43
2022/05/02 12:19:37;;;;;;;;;;;25.30;38.70;;;;;;5045580;28;949;-43
2022/05/02 12:22:08;;;;;;;;;;;25.30;38.70;;;;;;5045803;28;862;-43
2022/05/02 12:24:36;;;;;;;;;;;25.30;38.70;;;;;;5047503;28;1339;-43
2022/05/02 12:27:07;;;;;;;;;;;25.30;38.70;;;;;;5047129;28;1898;-42
2022/05/02 12:29:35;;;;;;;;;;;25.30;38.70;;;;;;5046389;28;1023;-42
2022/05/02 12:32:03;;;;;;;;;;;25.30;38.70;;;;;;5046779;28;950;-42
2022/05/02 12:34:37;;;;;;;;;;;25.30;38.70;;;;;;5046909;28;726;-42
2022/05/02 12:37:09;;;;;;;;;;;25.30;38.70;;;;;;5049396;28;1410;-42
2022/05/02 12:39:37;;;;;;;;;;;25.30;38.70;;;;;;5068094;28;973;-42
2022/05/02 12:42:12;;;;;;;;;;;25.30;38.70;;;;;;5067440;28;1329;-42
2022/05/02 12:44:43;;;;;;;;;;;25.30;38.70;;;;;;5066456;28;1016;-42
2022/05/02 12:47:15;;;;;;;;;;;25.30;38.70;;;;;;5066059;28;2172;-43
2022/05/02 12:49:53;;;;;;;;;;;25.30;38.70;;;;;;5067561;28;909;-44
2022/05/02 12:52:21;;;;;;;;;;;25.40;38.80;;;;;;5067802;28;983;-44
2022/05/02 12:54:49;;;;;;;;;;;25.40;38.80;;;;;;5068684;28;873;-45
2022/05/02 13:02:45;;;;;;;;;;;25.40;38.80;;;;;;5065696;28;852;-44
2022/05/02 13:05:13;;;;;;;;;;;25.40;38.90;;;;;;5065093;28;991;-44
2022/05/02 13:07:46;;;;;;;;;;;25.40;38.90;;;;;;5064860;28;1967;-44
2022/05/02 13:10:16;;;;;;;;;;;25.40;38.80;;;;;;5066492;28;865;-44
2022/05/02 13:12:53;;;;;;;;;;;25.40;38.70;;;;;;5064722;28;993;-44
2022/05/02 13:15:21;;;;;;;;;;;25.50;38.80;;;;;;5064967;28;882;-43
2022/05/02 13:17:49;;;;;;;;;;;25.50;38.80;;;;;;5063086;28;866;-44
2022/05/02 13:20:16;;;;;;;;;;;25.50;38.60;;;;;;5064511;28;914;-43
2022/05/02 13:22:58;;;;;;;;;;;25.50;38.70;;;;;;5064294;28;877;-43
2022/05/02 13:25:46;;;;;;;;;;;25.50;38.60;;;;;;5066479;28;846;-43
2022/05/02 13:28:18;;;;;;;;;;;25.50;38.70;;;;;;5066384;28;1914;-43
2022/05/02 13:30:47;;;;;;;;;;;25.60;38.70;;;;;;5065242;28;910;-43
2022/05/02 13:33:14;;;;;;;;;;;25.60;38.60;;;;;;5065260;28;980;-42
2022/05/02 13:35:42;;;;;;;;;;;25.60;38.50;;;;;;5066090;28;830;-43
2022/05/02 13:38:10;;;;;;;;;;;25.60;38.60;;;;;;5065188;28;1014;-43
2022/05/02 13:40:43;;;;;;;;;;;25.60;38.60;;;;;;5067151;28;1090;-42
2022/05/02 13:43:11;;;;;;;;;;;25.60;38.60;;;;;;5064802;28;1051;-42
2022/05/02 13:45:43;;;;;;;;;;;25.60;38.60;;;;;;5067840;28;981;-42
2022/05/02 13:48:14;;;;;;;;;;;25.60;38.60;;;;;;5065855;28;1902;-43
2022/05/02 13:50:42;;;;;;;;;;;25.70;38.60;;;;;;5067778;28;1004;-43
2022/05/02 13:53:18;;;;;;;;;;;25.70;38.60;;;;;;5066055;28;998;-43
2022/05/02 13:55:50;;;;;;;;;;;25.70;38.70;;;;;;5065757;28;719;-43
2022/05/02 13:58:32;;;;;;;;;;;25.70;38.70;;;;;;5064774;28;981;-42
2022/05/02 14:01:29;;;;;;;;;;;25.70;38.70;;;;;;5065228;28;1241;-42
2022/05/02 14:04:00;;;;;;;;;;;25.80;38.70;;;;;;5065659;28;1027;-43
2022/05/02 14:06:34;;;;;;;;;;;25.80;38.70;;;;;;5064246;28;1025;-42
2022/05/02 14:09:02;;;;;;;;;;;25.80;38.60;;;;;;5064900;28;1989;-43
2022/05/02 14:11:30;;;;;;;;;;;25.80;38.60;;;;;;5066662;28;1002;-43
2022/05/02 14:14:08;;;;;;;;;;;25.80;38.70;;;;;;5065834;28;1038;-42
2022/05/02 14:16:38;;;;;;;;;;;25.80;38.80;;;;;;5064744;28;1032;-43
2022/05/02 14:19:08;;;;;;;;;;;25.80;38.80;;;;;;5065903;28;1095;-42
2022/05/02 14:21:44;;;;;;;;;;;25.80;38.70;;;;;;5065922;28;906;-43
2022/05/02 14:24:10;;;;;;;;;;;25.80;38.70;;;;;;5065993;28;993;-41
2022/05/02 14:26:39;;;;;;;;;;;25.80;38.70;;;;;;5064857;28;911;-43
2022/05/02 14:29:09;;;;;;;;;;;25.80;38.70;;;;;;5064406;28;1906;-43
2022/05/02 14:31:37;;;;;;;;;;;25.90;39.90;;;;;;5065140;28;866;-42
2022/05/02 14:34:07;;;;;;;;;;;25.90;38.70;;;;;;5066667;28;843;-43
2022/05/02 14:36:36;;;;;;;;;;;26.00;38.70;;;;;;5066987;28;1012;-42
2022/05/02 14:39:04;;;;;;;;;;;26.00;38.70;;;;;;5064641;28;905;-42
2022/05/02 14:41:33;;;;;;;;;;;26.00;38.60;;;;;;5064503;28;1201;-43
2022/05/02 14:44:01;;;;;;;;;;;26.00;38.60;;;;;;5065830;28;1048;-43
2022/05/02 14:46:28;;;;;;;;;;;26.00;38.50;;;;;;5065660;28;937;-42
2022/05/02 14:48:56;;;;;;;;;;;26.10;38.60;;;;;;5064985;28;1914;-43
2022/05/02 14:51:25;;;;;;;;;;;26.20;39.80;;;;;;5066432;28;1067;-43
2022/05/02 14:53:56;;;;;;;;;;;26.20;38.50;;;;;;5066801;28;862;-42
2022/05/02 14:56:25;;;;;;;;;;;26.20;38.50;;;;;;5065241;28;889;-41
2022/05/02 14:58:54;;;;;;;;;;;26.20;38.50;;;;;;5066716;28;877;-43
2022/05/02 15:01:25;;;;;;;;;;;26.30;38.50;;;;;;5063850;28;988;-42
2022/05/02 15:03:55;;;;;;;;;;;26.30;38.40;;;;;;5065474;28;854;-42
2022/05/02 15:06:24;;;;;;;;;;;26.40;38.50;;;;;;5066438;28;994;-42
2022/05/02 15:09:00;;;;;;;;;;;26.40;38.50;;;;;;5066158;28;1910;-42
2022/05/02 15:11:31;;;;;;;;;;;26.40;38.50;;;;;;5064925;28;1005;-42
2022/05/02 15:14:18;;;;;;;;;;;26.40;38.50;;;;;;5065722;28;772;-42
2022/05/02 15:16:50;;;;;;;;;;;26.40;38.50;;;;;;5065122;28;1043;-42
2022/05/02 15:19:36;;;;;;;;;;;26.50;38.50;;;;;;5065920;28;896;-42
2022/05/02 15:22:29;;;;;;;;;;;26.50;38.40;;;;;;5066105;28;1015;-42
2022/05/02 15:25:04;;;;;;;;;;;26.50;38.50;;;;;;5048073;28;1531;-42
2022/05/02 15:38:54;;;;;;;;;;;26.60;38.40;;;;;;5064714;28;607;-42
2022/05/02 15:41:39;;;;;;;;;;;26.60;38.40;;;;;;5067424;28;1782;-41
2022/05/02 15:44:08;;;;;;;;;;;26.70;38.50;;;;;;5066049;28;906;-43